Terminal Aerodrome Forecast
Issued by NWS

Home | Current Version | Previous Version | Text Only | Print | Product List | Glossary On
Versions: 1 2 3 4 5 6 7 8 9 10 11 12 13 14
000
FTUS43 KSGF 032355 AAB
TAFBBG
TAF AMD
KBBG 032355Z 0400/0424 VRB03KT P6SM SKC
     FM041500 18005KT P6SM SCT200
     FM042000 20006KT P6SM SCT050 PROB30 0421/0424 4SM TSRA BR
      BKN040CB=

USA.gov is the U.S. government's official web portal to all federal, state and local government web resources and services.